sensor_id;sensor_type;location;lat;lon;timestamp;P1;durP1;ratioP1;P2;durP2;ratioP2
53907;SDS011;40469;47.998;7.794;2023-07-24T00:00:22;9.57;;;4.03;;
53907;SDS011;40469;47.998;7.794;2023-07-24T00:02:48;8.68;;;3.95;;
53907;SDS011;40469;47.998;7.794;2023-07-24T00:05:13;9.18;;;4.07;;
53907;SDS011;40469;47.998;7.794;2023-07-24T00:07:38;9.38;;;3.97;;
53907;SDS011;40469;47.998;7.794;2023-07-24T00:10:04;9.93;;;3.70;;
53907;SDS011;40469;47.998;7.794;2023-07-24T00:12:29;8.93;;;3.17;;
53907;SDS011;40469;47.998;7.794;2023-07-24T00:14:58;8.93;;;3.65;;
53907;SDS011;40469;47.998;7.794;2023-07-24T00:17:23;7.70;;;3.42;;
53907;SDS011;40469;47.998;7.794;2023-07-24T00:19:49;8.25;;;3.50;;
53907;SDS011;40469;47.998;7.794;2023-07-24T00:22:14;10.07;;;3.70;;
53907;SDS011;40469;47.998;7.794;2023-07-24T00:24:39;8.95;;;3.38;;
53907;SDS011;40469;47.998;7.794;2023-07-24T00:27:05;12.60;;;3.95;;
53907;SDS011;40469;47.998;7.794;2023-07-24T00:29:30;9.98;;;3.90;;
53907;SDS011;40469;47.998;7.794;2023-07-24T00:31:56;11.98;;;4.15;;
53907;SDS011;40469;47.998;7.794;2023-07-24T00:34:21;8.45;;;3.33;;
53907;SDS011;40469;47.998;7.794;2023-07-24T00:36:46;8.63;;;3.22;;
53907;SDS011;40469;47.998;7.794;2023-07-24T00:39:13;8.48;;;3.90;;
53907;SDS011;40469;47.998;7.794;2023-07-24T00:41:39;9.52;;;3.30;;
53907;SDS011;40469;47.998;7.794;2023-07-24T00:44:05;10.57;;;4.05;;
53907;SDS011;40469;47.998;7.794;2023-07-24T00:46:30;8.68;;;3.63;;
53907;SDS011;40469;47.998;7.794;2023-07-24T00:48:57;6.15;;;3.00;;
53907;SDS011;40469;47.998;7.794;2023-07-24T00:51:24;8.27;;;3.25;;
53907;SDS011;40469;47.998;7.794;2023-07-24T00:53:52;10.23;;;4.30;;
53907;SDS011;40469;47.998;7.794;2023-07-24T00:56:20;9.20;;;3.92;;
53907;SDS011;40469;47.998;7.794;2023-07-24T00:58:46;8.35;;;3.80;;
53907;SDS011;40469;47.998;7.794;2023-07-24T01:01:12;7.43;;;2.75;;
53907;SDS011;40469;47.998;7.794;2023-07-24T01:03:39;6.97;;;2.90;;
53907;SDS011;40469;47.998;7.794;2023-07-24T01:06:04;7.20;;;3.30;;
53907;SDS011;40469;47.998;7.794;2023-07-24T01:08:29;8.05;;;3.38;;
53907;SDS011;40469;47.998;7.794;2023-07-24T01:10:59;8.57;;;3.45;;
53907;SDS011;40469;47.998;7.794;2023-07-24T01:13:40;8.70;;;3.05;;
53907;SDS011;40469;47.998;7.794;2023-07-24T01:16:09;9.30;;;3.30;;
53907;SDS011;40469;47.998;7.794;2023-07-24T01:18:39;8.40;;;3.40;;
53907;SDS011;40469;47.998;7.794;2023-07-24T01:21:04;11.32;;;3.58;;
53907;SDS011;40469;47.998;7.794;2023-07-24T01:23:51;13.23;;;4.20;;
53907;SDS011;40469;47.998;7.794;2023-07-24T01:26:23;9.20;;;3.72;;
53907;SDS011;40469;47.998;7.794;2023-07-24T01:28:50;10.23;;;3.80;;
53907;SDS011;40469;47.998;7.794;2023-07-24T01:31:15;9.70;;;3.75;;
53907;SDS011;40469;47.998;7.794;2023-07-24T01:33:42;8.90;;;3.45;;
53907;SDS011;40469;47.998;7.794;2023-07-24T01:36:08;8.52;;;3.45;;
53907;SDS011;40469;47.998;7.794;2023-07-24T01:38:34;7.57;;;3.35;;
53907;SDS011;40469;47.998;7.794;2023-07-24T01:41:01;10.57;;;4.03;;
53907;SDS011;40469;47.998;7.794;2023-07-24T01:43:28;11.10;;;3.88;;
53907;SDS011;40469;47.998;7.794;2023-07-24T01:45:54;8.95;;;3.30;;
53907;SDS011;40469;47.998;7.794;2023-07-24T01:48:20;9.93;;;4.15;;
53907;SDS011;40469;47.998;7.794;2023-07-24T01:50:45;7.95;;;3.35;;
53907;SDS011;40469;47.998;7.794;2023-07-24T01:53:10;10.55;;;4.00;;
53907;SDS011;40469;47.998;7.794;2023-07-24T01:55:36;7.50;;;3.88;;
53907;SDS011;40469;47.998;7.794;2023-07-24T01:58:01;12.25;;;3.85;;
53907;SDS011;40469;47.998;7.794;2023-07-24T02:00:26;8.82;;;3.80;;
53907;SDS011;40469;47.998;7.794;2023-07-24T02:02:52;7.25;;;3.55;;
53907;SDS011;40469;47.998;7.794;2023-07-24T02:05:17;10.23;;;3.88;;
53907;SDS011;40469;47.998;7.794;2023-07-24T02:07:42;10.02;;;4.30;;
53907;SDS011;40469;47.998;7.794;2023-07-24T02:10:08;9.93;;;3.72;;
53907;SDS011;40469;47.998;7.794;2023-07-24T02:12:34;10.45;;;4.18;;
53907;SDS011;40469;47.998;7.794;2023-07-24T02:14:59;9.05;;;4.18;;
53907;SDS011;40469;47.998;7.794;2023-07-24T02:17:24;8.77;;;3.75;;
53907;SDS011;40469;47.998;7.794;2023-07-24T02:19:50;8.68;;;3.55;;
53907;SDS011;40469;47.998;7.794;2023-07-24T02:22:15;9.40;;;3.65;;
53907;SDS011;40469;47.998;7.794;2023-07-24T02:24:40;9.30;;;3.78;;
53907;SDS011;40469;47.998;7.794;2023-07-24T02:27:06;11.40;;;4.60;;
53907;SDS011;40469;47.998;7.794;2023-07-24T02:29:31;8.43;;;3.50;;
53907;SDS011;40469;47.998;7.794;2023-07-24T02:31:57;10.52;;;4.07;;
53907;SDS011;40469;47.998;7.794;2023-07-24T02:34:23;8.70;;;3.92;;
53907;SDS011;40469;47.998;7.794;2023-07-24T02:36:51;9.30;;;4.70;;
53907;SDS011;40469;47.998;7.794;2023-07-24T02:39:18;9.85;;;4.05;;
53907;SDS011;40469;47.998;7.794;2023-07-24T02:41:43;10.93;;;3.85;;
53907;SDS011;40469;47.998;7.794;2023-07-24T02:44:09;8.77;;;3.58;;
53907;SDS011;40469;47.998;7.794;2023-07-24T02:46:34;8.77;;;3.75;;
53907;SDS011;40469;47.998;7.794;2023-07-24T02:48:59;8.73;;;3.47;;
53907;SDS011;40469;47.998;7.794;2023-07-24T02:51:25;10.45;;;4.00;;
53907;SDS011;40469;47.998;7.794;2023-07-24T02:53:50;8.73;;;3.67;;
53907;SDS011;40469;47.998;7.794;2023-07-24T02:56:15;11.20;;;4.07;;
53907;SDS011;40469;47.998;7.794;2023-07-24T02:58:41;9.23;;;3.53;;
53907;SDS011;40469;47.998;7.794;2023-07-24T03:01:06;8.77;;;3.53;;
53907;SDS011;40469;47.998;7.794;2023-07-24T03:03:41;9.75;;;4.15;;
53907;SDS011;40469;47.998;7.794;2023-07-24T03:06:07;10.38;;;3.45;;
53907;SDS011;40469;47.998;7.794;2023-07-24T03:08:32;9.75;;;4.10;;
53907;SDS011;40469;47.998;7.794;2023-07-24T03:10:59;6.63;;;2.72;;
53907;SDS011;40469;47.998;7.794;2023-07-24T03:13:24;10.10;;;4.00;;
53907;SDS011;40469;47.998;7.794;2023-07-24T03:15:56;8.50;;;3.20;;
53907;SDS011;40469;47.998;7.794;2023-07-24T03:18:22;9.27;;;3.70;;
53907;SDS011;40469;47.998;7.794;2023-07-24T03:20:48;9.38;;;4.03;;
53907;SDS011;40469;47.998;7.794;2023-07-24T03:23:14;8.68;;;3.63;;
53907;SDS011;40469;47.998;7.794;2023-07-24T03:25:39;9.85;;;3.80;;
53907;SDS011;40469;47.998;7.794;2023-07-24T03:28:05;9.80;;;3.58;;
53907;SDS011;40469;47.998;7.794;2023-07-24T03:30:30;9.77;;;3.45;;
53907;SDS011;40469;47.998;7.794;2023-07-24T03:32:55;10.32;;;3.80;;
53907;SDS011;40469;47.998;7.794;2023-07-24T03:35:21;8.40;;;3.45;;
53907;SDS011;40469;47.998;7.794;2023-07-24T03:37:46;9.48;;;4.40;;
53907;SDS011;40469;47.998;7.794;2023-07-24T03:40:12;9.55;;;4.10;;
53907;SDS011;40469;47.998;7.794;2023-07-24T03:42:37;9.25;;;3.90;;
53907;SDS011;40469;47.998;7.794;2023-07-24T03:45:03;9.35;;;3.67;;
53907;SDS011;40469;47.998;7.794;2023-07-24T03:47:28;8.60;;;3.90;;
53907;SDS011;40469;47.998;7.794;2023-07-24T03:49:53;10.90;;;3.75;;
53907;SDS011;40469;47.998;7.794;2023-07-24T03:52:20;9.02;;;3.90;;
53907;SDS011;40469;47.998;7.794;2023-07-24T03:54:45;9.40;;;4.47;;
53907;SDS011;40469;47.998;7.794;2023-07-24T03:57:11;7.88;;;3.38;;
53907;SDS011;40469;47.998;7.794;2023-07-24T03:59:36;9.90;;;4.00;;
53907;SDS011;40469;47.998;7.794;2023-07-24T04:02:01;8.63;;;3.42;;
53907;SDS011;40469;47.998;7.794;2023-07-24T04:04:27;7.78;;;3.58;;
53907;SDS011;40469;47.998;7.794;2023-07-24T04:06:52;8.95;;;3.63;;
53907;SDS011;40469;47.998;7.794;2023-07-24T04:09:18;10.10;;;4.38;;
53907;SDS011;40469;47.998;7.794;2023-07-24T04:11:43;7.97;;;3.42;;
53907;SDS011;40469;47.998;7.794;2023-07-24T04:14:09;8.35;;;3.63;;
53907;SDS011;40469;47.998;7.794;2023-07-24T04:16:35;9.65;;;3.63;;
53907;SDS011;40469;47.998;7.794;2023-07-24T04:19:00;7.70;;;3.58;;
53907;SDS011;40469;47.998;7.794;2023-07-24T04:21:25;7.82;;;3.42;;
53907;SDS011;40469;47.998;7.794;2023-07-24T04:23:51;12.93;;;3.72;;
53907;SDS011;40469;47.998;7.794;2023-07-24T04:26:16;9.00;;;3.63;;
53907;SDS011;40469;47.998;7.794;2023-07-24T04:28:42;9.50;;;3.80;;
53907;SDS011;40469;47.998;7.794;2023-07-24T04:31:07;7.40;;;3.33;;
53907;SDS011;40469;47.998;7.794;2023-07-24T04:33:32;9.02;;;3.60;;
53907;SDS011;40469;47.998;7.794;2023-07-24T04:35:58;7.90;;;3.95;;
53907;SDS011;40469;47.998;7.794;2023-07-24T04:38:23;8.85;;;3.85;;
53907;SDS011;40469;47.998;7.794;2023-07-24T04:40:48;8.45;;;3.88;;
53907;SDS011;40469;47.998;7.794;2023-07-24T04:43:14;8.27;;;3.92;;
53907;SDS011;40469;47.998;7.794;2023-07-24T04:45:39;10.55;;;3.47;;
53907;SDS011;40469;47.998;7.794;2023-07-24T04:48:05;7.90;;;3.67;;
53907;SDS011;40469;47.998;7.794;2023-07-24T04:50:30;8.30;;;3.50;;
53907;SDS011;40469;47.998;7.794;2023-07-24T04:52:56;9.68;;;3.90;;
53907;SDS011;40469;47.998;7.794;2023-07-24T04:55:21;9.27;;;3.88;;
53907;SDS011;40469;47.998;7.794;2023-07-24T04:57:47;9.25;;;4.15;;
53907;SDS011;40469;47.998;7.794;2023-07-24T05:00:13;9.40;;;3.53;;
53907;SDS011;40469;47.998;7.794;2023-07-24T05:02:38;8.40;;;3.22;;
53907;SDS011;40469;47.998;7.794;2023-07-24T05:05:05;7.30;;;3.40;;
53907;SDS011;40469;47.998;7.794;2023-07-24T05:07:31;11.48;;;3.95;;
53907;SDS011;40469;47.998;7.794;2023-07-24T05:09:57;9.85;;;3.60;;
53907;SDS011;40469;47.998;7.794;2023-07-24T05:12:22;9.02;;;3.78;;
53907;SDS011;40469;47.998;7.794;2023-07-24T05:14:47;10.63;;;3.75;;
53907;SDS011;40469;47.998;7.794;2023-07-24T05:17:13;6.70;;;3.45;;
53907;SDS011;40469;47.998;7.794;2023-07-24T05:19:38;6.22;;;3.08;;
53907;SDS011;40469;47.998;7.794;2023-07-24T05:22:04;8.57;;;3.47;;
53907;SDS011;40469;47.998;7.794;2023-07-24T05:24:29;6.75;;;2.80;;
53907;SDS011;40469;47.998;7.794;2023-07-24T05:26:54;6.72;;;3.13;;
53907;SDS011;40469;47.998;7.794;2023-07-24T05:29:20;7.05;;;3.10;;
53907;SDS011;40469;47.998;7.794;2023-07-24T05:31:45;9.73;;;3.28;;
53907;SDS011;40469;47.998;7.794;2023-07-24T05:34:10;6.90;;;2.40;;
53907;SDS011;40469;47.998;7.794;2023-07-24T05:36:36;6.65;;;2.38;;
53907;SDS011;40469;47.998;7.794;2023-07-24T05:39:01;6.57;;;2.90;;
53907;SDS011;40469;47.998;7.794;2023-07-24T05:41:27;6.80;;;2.88;;
53907;SDS011;40469;47.998;7.794;2023-07-24T05:43:52;5.97;;;2.75;;
53907;SDS011;40469;47.998;7.794;2023-07-24T05:46:17;9.15;;;2.97;;
53907;SDS011;40469;47.998;7.794;2023-07-24T05:48:42;6.90;;;2.35;;
53907;SDS011;40469;47.998;7.794;2023-07-24T05:51:08;7.57;;;2.90;;
53907;SDS011;40469;47.998;7.794;2023-07-24T05:53:33;6.30;;;2.47;;
53907;SDS011;40469;47.998;7.794;2023-07-24T05:55:59;6.45;;;2.80;;
53907;SDS011;40469;47.998;7.794;2023-07-24T05:58:26;7.57;;;2.88;;
53907;SDS011;40469;47.998;7.794;2023-07-24T06:00:51;5.72;;;2.58;;
53907;SDS011;40469;47.998;7.794;2023-07-24T06:03:17;5.90;;;2.35;;
53907;SDS011;40469;47.998;7.794;2023-07-24T06:05:42;8.68;;;2.75;;
53907;SDS011;40469;47.998;7.794;2023-07-24T06:08:07;6.68;;;2.10;;
53907;SDS011;40469;47.998;7.794;2023-07-24T06:10:36;7.00;;;2.40;;
53907;SDS011;40469;47.998;7.794;2023-07-24T06:13:02;6.43;;;2.15;;
53907;SDS011;40469;47.998;7.794;2023-07-24T06:15:27;8.68;;;2.70;;
53907;SDS011;40469;47.998;7.794;2023-07-24T06:17:52;6.13;;;2.50;;
53907;SDS011;40469;47.998;7.794;2023-07-24T06:20:18;6.32;;;2.42;;
53907;SDS011;40469;47.998;7.794;2023-07-24T06:22:43;6.07;;;2.30;;
53907;SDS011;40469;47.998;7.794;2023-07-24T06:25:08;5.32;;;2.55;;
53907;SDS011;40469;47.998;7.794;2023-07-24T06:27:34;6.05;;;2.53;;
53907;SDS011;40469;47.998;7.794;2023-07-24T06:29:59;5.50;;;2.45;;
53907;SDS011;40469;47.998;7.794;2023-07-24T06:32:24;7.28;;;2.10;;
53907;SDS011;40469;47.998;7.794;2023-07-24T06:34:50;5.88;;;2.33;;
53907;SDS011;40469;47.998;7.794;2023-07-24T06:37:15;4.05;;;1.70;;
53907;SDS011;40469;47.998;7.794;2023-07-24T06:39:40;5.35;;;1.52;;
53907;SDS011;40469;47.998;7.794;2023-07-24T06:42:06;5.75;;;2.13;;
53907;SDS011;40469;47.998;7.794;2023-07-24T06:44:31;3.25;;;1.52;;
53907;SDS011;40469;47.998;7.794;2023-07-24T06:46:56;3.30;;;1.73;;
53907;SDS011;40469;47.998;7.794;2023-07-24T06:49:22;3.72;;;1.88;;
53907;SDS011;40469;47.998;7.794;2023-07-24T06:51:47;3.08;;;1.45;;
53907;SDS011;40469;47.998;7.794;2023-07-24T06:54:12;4.93;;;1.80;;
53907;SDS011;40469;47.998;7.794;2023-07-24T06:56:38;4.07;;;1.88;;
53907;SDS011;40469;47.998;7.794;2023-07-24T06:59:03;8.60;;;1.73;;
53907;SDS011;40469;47.998;7.794;2023-07-24T07:01:28;3.65;;;1.63;;
53907;SDS011;40469;47.998;7.794;2023-07-24T07:03:54;6.55;;;2.35;;
53907;SDS011;40469;47.998;7.794;2023-07-24T07:06:19;5.40;;;2.05;;
53907;SDS011;40469;47.998;7.794;2023-07-24T07:08:44;4.00;;;1.95;;
53907;SDS011;40469;47.998;7.794;2023-07-24T07:11:10;6.05;;;1.88;;
53907;SDS011;40469;47.998;7.794;2023-07-24T07:13:35;4.47;;;2.17;;
53907;SDS011;40469;47.998;7.794;2023-07-24T07:16:00;5.43;;;2.20;;
53907;SDS011;40469;47.998;7.794;2023-07-24T07:18:26;4.22;;;1.83;;
53907;SDS011;40469;47.998;7.794;2023-07-24T07:20:52;4.82;;;2.25;;
53907;SDS011;40469;47.998;7.794;2023-07-24T07:23:18;5.40;;;1.95;;
53907;SDS011;40469;47.998;7.794;2023-07-24T07:25:43;5.68;;;1.75;;
53907;SDS011;40469;47.998;7.794;2023-07-24T07:28:15;4.85;;;2.03;;
53907;SDS011;40469;47.998;7.794;2023-07-24T07:30:41;4.40;;;1.63;;
53907;SDS011;40469;47.998;7.794;2023-07-24T07:33:07;5.25;;;1.83;;
53907;SDS011;40469;47.998;7.794;2023-07-24T07:35:34;5.88;;;2.33;;
53907;SDS011;40469;47.998;7.794;2023-07-24T07:38:00;5.60;;;2.08;;
53907;SDS011;40469;47.998;7.794;2023-07-24T07:40:25;5.53;;;2.13;;
53907;SDS011;40469;47.998;7.794;2023-07-24T07:42:52;5.97;;;2.05;;
53907;SDS011;40469;47.998;7.794;2023-07-24T07:45:18;5.90;;;2.70;;
53907;SDS011;40469;47.998;7.794;2023-07-24T07:47:43;6.78;;;1.95;;
53907;SDS011;40469;47.998;7.794;2023-07-24T07:50:09;7.25;;;2.33;;
53907;SDS011;40469;47.998;7.794;2023-07-24T07:52:34;5.72;;;2.13;;
53907;SDS011;40469;47.998;7.794;2023-07-24T07:55:00;7.82;;;2.55;;
53907;SDS011;40469;47.998;7.794;2023-07-24T07:57:25;5.97;;;3.05;;
53907;SDS011;40469;47.998;7.794;2023-07-24T07:59:50;7.72;;;3.05;;
53907;SDS011;40469;47.998;7.794;2023-07-24T08:02:16;6.10;;;2.45;;
53907;SDS011;40469;47.998;7.794;2023-07-24T08:04:41;5.65;;;2.95;;
53907;SDS011;40469;47.998;7.794;2023-07-24T08:07:06;6.03;;;2.90;;
53907;SDS011;40469;47.998;7.794;2023-07-24T08:09:32;5.90;;;2.65;;
53907;SDS011;40469;47.998;7.794;2023-07-24T08:11:58;6.95;;;2.78;;
53907;SDS011;40469;47.998;7.794;2023-07-24T08:14:24;7.03;;;3.10;;
53907;SDS011;40469;47.998;7.794;2023-07-24T08:16:49;7.43;;;3.03;;
53907;SDS011;40469;47.998;7.794;2023-07-24T08:19:15;5.80;;;3.60;;
53907;SDS011;40469;47.998;7.794;2023-07-24T08:21:40;8.60;;;3.10;;
53907;SDS011;40469;47.998;7.794;2023-07-24T08:24:06;8.02;;;3.28;;
53907;SDS011;40469;47.998;7.794;2023-07-24T08:26:32;6.82;;;3.03;;
53907;SDS011;40469;47.998;7.794;2023-07-24T08:28:57;7.90;;;2.80;;
53907;SDS011;40469;47.998;7.794;2023-07-24T08:31:23;6.68;;;2.60;;
53907;SDS011;40469;47.998;7.794;2023-07-24T08:33:48;7.38;;;3.70;;
53907;SDS011;40469;47.998;7.794;2023-07-24T08:36:13;7.18;;;3.03;;
53907;SDS011;40469;47.998;7.794;2023-07-24T08:38:39;6.90;;;2.95;;
53907;SDS011;40469;47.998;7.794;2023-07-24T08:41:09;4.85;;;2.42;;
53907;SDS011;40469;47.998;7.794;2023-07-24T08:43:36;12.80;;;4.63;;
53907;SDS011;40469;47.998;7.794;2023-07-24T08:46:03;11.27;;;4.75;;
53907;SDS011;40469;47.998;7.794;2023-07-24T08:48:37;8.95;;;3.30;;
53907;SDS011;40469;47.998;7.794;2023-07-24T08:51:05;7.35;;;3.05;;
53907;SDS011;40469;47.998;7.794;2023-07-24T08:53:32;5.97;;;2.28;;
53907;SDS011;40469;47.998;7.794;2023-07-24T08:56:00;8.60;;;2.78;;
53907;SDS011;40469;47.998;7.794;2023-07-24T08:58:27;7.10;;;2.78;;
53907;SDS011;40469;47.998;7.794;2023-07-24T09:00:52;7.15;;;3.00;;
53907;SDS011;40469;47.998;7.794;2023-07-24T09:03:18;7.80;;;3.20;;
53907;SDS011;40469;47.998;7.794;2023-07-24T09:05:44;8.63;;;3.65;;
53907;SDS011;40469;47.998;7.794;2023-07-24T09:08:11;9.95;;;3.35;;
53907;SDS011;40469;47.998;7.794;2023-07-24T09:10:36;7.40;;;2.88;;
53907;SDS011;40469;47.998;7.794;2023-07-24T09:13:02;10.18;;;3.53;;
53907;SDS011;40469;47.998;7.794;2023-07-24T09:15:29;7.60;;;2.58;;
53907;SDS011;40469;47.998;7.794;2023-07-24T09:18:04;9.90;;;3.80;;
53907;SDS011;40469;47.998;7.794;2023-07-24T09:20:37;9.57;;;2.92;;
53907;SDS011;40469;47.998;7.794;2023-07-24T09:23:03;8.07;;;2.87;;
53907;SDS011;40469;47.998;7.794;2023-07-24T09:25:29;9.07;;;3.03;;
53907;SDS011;40469;47.998;7.794;2023-07-24T09:27:57;12.38;;;4.13;;
53907;SDS011;40469;47.998;7.794;2023-07-24T09:30:23;13.25;;;3.63;;
53907;SDS011;40469;47.998;7.794;2023-07-24T09:32:55;8.02;;;3.42;;
53907;SDS011;40469;47.998;7.794;2023-07-24T09:35:20;8.43;;;3.20;;
53907;SDS011;40469;47.998;7.794;2023-07-24T09:38:00;8.10;;;3.30;;
53907;SDS011;40469;47.998;7.794;2023-07-24T09:40:27;7.18;;;2.45;;
53907;SDS011;40469;47.998;7.794;2023-07-24T09:42:52;8.05;;;3.40;;
53907;SDS011;40469;47.998;7.794;2023-07-24T09:45:17;8.68;;;3.60;;
53907;SDS011;40469;47.998;7.794;2023-07-24T09:47:43;8.82;;;3.22;;
53907;SDS011;40469;47.998;7.794;2023-07-24T09:50:09;8.35;;;3.17;;
53907;SDS011;40469;47.998;7.794;2023-07-24T09:52:35;8.82;;;3.00;;
53907;SDS011;40469;47.998;7.794;2023-07-24T09:58:00;5.10;;;2.00;;
53907;SDS011;40469;47.998;7.794;2023-07-24T10:00:26;4.25;;;1.70;;
53907;SDS011;40469;47.998;7.794;2023-07-24T10:02:52;2.95;;;1.65;;
53907;SDS011;40469;47.998;7.794;2023-07-24T10:05:17;4.47;;;1.60;;
53907;SDS011;40469;47.998;7.794;2023-07-24T10:07:43;4.97;;;1.90;;
53907;SDS011;40469;47.998;7.794;2023-07-24T10:10:09;3.83;;;1.60;;
53907;SDS011;40469;47.998;7.794;2023-07-24T10:12:35;3.97;;;1.27;;
53907;SDS011;40469;47.998;7.794;2023-07-24T10:15:02;4.95;;;1.27;;
53907;SDS011;40469;47.998;7.794;2023-07-24T10:17:37;3.70;;;1.30;;
53907;SDS011;40469;47.998;7.794;2023-07-24T10:20:07;5.47;;;1.40;;
53907;SDS011;40469;47.998;7.794;2023-07-24T10:22:35;2.40;;;1.20;;
53907;SDS011;40469;47.998;7.794;2023-07-24T10:25:02;6.28;;;1.65;;
53907;SDS011;40469;47.998;7.794;2023-07-24T10:27:28;2.95;;;1.35;;
53907;SDS011;40469;47.998;7.794;2023-07-24T10:30:03;4.93;;;1.20;;
53907;SDS011;40469;47.998;7.794;2023-07-24T10:32:29;1.95;;;1.10;;
53907;SDS011;40469;47.998;7.794;2023-07-24T10:35:06;4.25;;;2.03;;
53907;SDS011;40469;47.998;7.794;2023-07-24T10:37:34;4.68;;;2.53;;
53907;SDS011;40469;47.998;7.794;2023-07-24T10:40:01;5.80;;;1.90;;
53907;SDS011;40469;47.998;7.794;2023-07-24T10:42:28;7.10;;;2.75;;
53907;SDS011;40469;47.998;7.794;2023-07-24T10:45:07;5.40;;;1.98;;
53907;SDS011;40469;47.998;7.794;2023-07-24T10:47:33;4.70;;;2.17;;
53907;SDS011;40469;47.998;7.794;2023-07-24T10:49:59;4.22;;;2.47;;
53907;SDS011;40469;47.998;7.794;2023-07-24T10:52:30;7.13;;;2.45;;
53907;SDS011;40469;47.998;7.794;2023-07-24T10:54:56;5.20;;;2.38;;
53907;SDS011;40469;47.998;7.794;2023-07-24T10:57:25;6.18;;;2.33;;
53907;SDS011;40469;47.998;7.794;2023-07-24T10:59:59;6.47;;;2.35;;
53907;SDS011;40469;47.998;7.794;2023-07-24T11:02:24;5.50;;;2.15;;
53907;SDS011;40469;47.998;7.794;2023-07-24T11:04:50;4.82;;;2.10;;
53907;SDS011;40469;47.998;7.794;2023-07-24T11:07:15;3.65;;;1.83;;
53907;SDS011;40469;47.998;7.794;2023-07-24T11:09:41;4.60;;;1.95;;
53907;SDS011;40469;47.998;7.794;2023-07-24T11:12:16;4.05;;;2.15;;
53907;SDS011;40469;47.998;7.794;2023-07-24T11:14:51;2.53;;;1.27;;
53907;SDS011;40469;47.998;7.794;2023-07-24T11:17:19;3.50;;;1.70;;
53907;SDS011;40469;47.998;7.794;2023-07-24T11:19:44;4.22;;;1.65;;
53907;SDS011;40469;47.998;7.794;2023-07-24T11:22:10;3.45;;;1.27;;
53907;SDS011;40469;47.998;7.794;2023-07-24T11:24:45;3.15;;;1.17;;
53907;SDS011;40469;47.998;7.794;2023-07-24T11:27:12;3.25;;;1.70;;
53907;SDS011;40469;47.998;7.794;2023-07-24T11:29:40;3.17;;;1.40;;
53907;SDS011;40469;47.998;7.794;2023-07-24T11:32:06;2.20;;;1.20;;
53907;SDS011;40469;47.998;7.794;2023-07-24T11:34:31;4.00;;;1.55;;
53907;SDS011;40469;47.998;7.794;2023-07-24T11:36:57;2.92;;;1.10;;
53907;SDS011;40469;47.998;7.794;2023-07-24T11:39:24;4.68;;;1.40;;
53907;SDS011;40469;47.998;7.794;2023-07-24T11:41:49;3.08;;;1.10;;
53907;SDS011;40469;47.998;7.794;2023-07-24T11:44:15;3.47;;;1.40;;
53907;SDS011;40469;47.998;7.794;2023-07-24T11:46:42;4.53;;;1.70;;
53907;SDS011;40469;47.998;7.794;2023-07-24T11:49:08;3.70;;;1.52;;
53907;SDS011;40469;47.998;7.794;2023-07-24T11:51:36;3.88;;;1.35;;
53907;SDS011;40469;47.998;7.794;2023-07-24T11:54:08;3.10;;;1.63;;
53907;SDS011;40469;47.998;7.794;2023-07-24T11:56:36;5.57;;;2.25;;
53907;SDS011;40469;47.998;7.794;2023-07-24T11:59:14;4.32;;;1.83;;
53907;SDS011;40469;47.998;7.794;2023-07-24T12:01:40;2.95;;;1.45;;
53907;SDS011;40469;47.998;7.794;2023-07-24T12:04:06;3.35;;;1.45;;
53907;SDS011;40469;47.998;7.794;2023-07-24T12:06:31;3.53;;;1.50;;
53907;SDS011;40469;47.998;7.794;2023-07-24T12:09:03;2.75;;;1.25;;
53907;SDS011;40469;47.998;7.794;2023-07-24T12:11:33;5.25;;;1.98;;
53907;SDS011;40469;47.998;7.794;2023-07-24T12:14:03;3.00;;;1.20;;
53907;SDS011;40469;47.998;7.794;2023-07-24T12:16:29;3.63;;;1.75;;
53907;SDS011;40469;47.998;7.794;2023-07-24T12:18:55;4.85;;;2.00;;
53907;SDS011;40469;47.998;7.794;2023-07-24T12:21:21;2.92;;;1.25;;
53907;SDS011;40469;47.998;7.794;2023-07-24T12:23:46;3.90;;;1.55;;
53907;SDS011;40469;47.998;7.794;2023-07-24T12:26:11;2.90;;;1.38;;
53907;SDS011;40469;47.998;7.794;2023-07-24T12:28:37;3.58;;;1.35;;
53907;SDS011;40469;47.998;7.794;2023-07-24T12:31:02;3.58;;;1.60;;
53907;SDS011;40469;47.998;7.794;2023-07-24T12:33:28;3.22;;;1.40;;
53907;SDS011;40469;47.998;7.794;2023-07-24T12:35:53;2.17;;;1.20;;
53907;SDS011;40469;47.998;7.794;2023-07-24T12:38:19;3.20;;;1.50;;
53907;SDS011;40469;47.998;7.794;2023-07-24T12:40:44;3.33;;;1.50;;
53907;SDS011;40469;47.998;7.794;2023-07-24T12:43:10;2.60;;;1.20;;
53907;SDS011;40469;47.998;7.794;2023-07-24T12:45:35;3.72;;;1.48;;
53907;SDS011;40469;47.998;7.794;2023-07-24T12:48:00;3.13;;;1.50;;
53907;SDS011;40469;47.998;7.794;2023-07-24T12:50:26;2.83;;;1.23;;
53907;SDS011;40469;47.998;7.794;2023-07-24T12:52:51;2.95;;;1.40;;
53907;SDS011;40469;47.998;7.794;2023-07-24T12:55:17;2.85;;;1.27;;
53907;SDS011;40469;47.998;7.794;2023-07-24T12:57:42;2.60;;;1.25;;
53907;SDS011;40469;47.998;7.794;2023-07-24T13:00:07;2.45;;;1.23;;
53907;SDS011;40469;47.998;7.794;2023-07-24T13:02:34;3.47;;;1.55;;
53907;SDS011;40469;47.998;7.794;2023-07-24T13:05:00;3.35;;;1.40;;
53907;SDS011;40469;47.998;7.794;2023-07-24T13:07:25;2.45;;;1.25;;
53907;SDS011;40469;47.998;7.794;2023-07-24T13:09:51;2.88;;;1.40;;
53907;SDS011;40469;47.998;7.794;2023-07-24T13:12:16;2.53;;;1.38;;
53907;SDS011;40469;47.998;7.794;2023-07-24T13:14:42;2.08;;;1.40;;
53907;SDS011;40469;47.998;7.794;2023-07-24T13:17:07;3.30;;;1.45;;
53907;SDS011;40469;47.998;7.794;2023-07-24T13:19:33;4.88;;;1.55;;
53907;SDS011;40469;47.998;7.794;2023-07-24T13:21:58;4.90;;;1.77;;
53907;SDS011;40469;47.998;7.794;2023-07-24T13:24:24;5.97;;;2.30;;
53907;SDS011;40469;47.998;7.794;2023-07-24T13:26:49;5.55;;;2.33;;
53907;SDS011;40469;47.998;7.794;2023-07-24T13:29:14;5.72;;;1.98;;
53907;SDS011;40469;47.998;7.794;2023-07-24T13:31:40;5.53;;;2.03;;
53907;SDS011;40469;47.998;7.794;2023-07-24T13:34:06;6.30;;;2.58;;
53907;SDS011;40469;47.998;7.794;2023-07-24T13:36:32;4.90;;;2.00;;
53907;SDS011;40469;47.998;7.794;2023-07-24T13:38:57;6.40;;;2.60;;
53907;SDS011;40469;47.998;7.794;2023-07-24T13:41:22;8.98;;;3.00;;
53907;SDS011;40469;47.998;7.794;2023-07-24T13:43:48;6.60;;;2.97;;
53907;SDS011;40469;47.998;7.794;2023-07-24T13:46:13;7.43;;;2.80;;
53907;SDS011;40469;47.998;7.794;2023-07-24T13:48:38;9.48;;;3.78;;
53907;SDS011;40469;47.998;7.794;2023-07-24T13:51:04;6.50;;;3.40;;
53907;SDS011;40469;47.998;7.794;2023-07-24T13:53:29;7.35;;;3.40;;
53907;SDS011;40469;47.998;7.794;2023-07-24T13:55:55;8.38;;;3.65;;
53907;SDS011;40469;47.998;7.794;2023-07-24T13:58:20;7.80;;;3.20;;
53907;SDS011;40469;47.998;7.794;2023-07-24T14:00:46;7.60;;;3.58;;
53907;SDS011;40469;47.998;7.794;2023-07-24T14:03:11;7.38;;;2.97;;
53907;SDS011;40469;47.998;7.794;2023-07-24T14:05:36;6.82;;;2.95;;
53907;SDS011;40469;47.998;7.794;2023-07-24T14:08:02;7.70;;;3.30;;
53907;SDS011;40469;47.998;7.794;2023-07-24T14:10:28;8.40;;;3.35;;
53907;SDS011;40469;47.998;7.794;2023-07-24T14:12:53;8.18;;;2.67;;
53907;SDS011;40469;47.998;7.794;2023-07-24T14:15:18;4.68;;;2.50;;
53907;SDS011;40469;47.998;7.794;2023-07-24T14:17:44;5.68;;;2.72;;
53907;SDS011;40469;47.998;7.794;2023-07-24T14:20:09;5.80;;;2.55;;
53907;SDS011;40469;47.998;7.794;2023-07-24T14:22:36;5.45;;;2.47;;
53907;SDS011;40469;47.998;7.794;2023-07-24T14:25:01;5.18;;;2.72;;
53907;SDS011;40469;47.998;7.794;2023-07-24T14:27:27;6.43;;;2.70;;
53907;SDS011;40469;47.998;7.794;2023-07-24T14:29:52;6.32;;;2.40;;
53907;SDS011;40469;47.998;7.794;2023-07-24T14:32:18;7.00;;;3.30;;
53907;SDS011;40469;47.998;7.794;2023-07-24T14:34:43;9.32;;;3.20;;
53907;SDS011;40469;47.998;7.794;2023-07-24T14:37:09;9.45;;;2.42;;
53907;SDS011;40469;47.998;7.794;2023-07-24T14:39:34;6.28;;;3.08;;
53907;SDS011;40469;47.998;7.794;2023-07-24T14:41:59;6.55;;;2.90;;